createdAt,value
2017-07-19T00:00:46.749Z,38.64
2017-07-19T00:01:46.772Z,38.64
2017-07-19T00:02:46.802Z,38.54
2017-07-19T00:03:46.830Z,38.64
2017-07-19T00:04:46.851Z,38.93
2017-07-19T00:05:46.876Z,38.93
2017-07-19T00:06:46.907Z,38.83
2017-07-19T00:07:46.931Z,38.83
2017-07-19T00:08:46.963Z,38.91
2017-07-19T00:09:46.988Z,38.91
2017-07-19T00:10:46.700Z,38.91
2017-07-19T00:11:47.036Z,39.2
2017-07-19T00:12:47.070Z,39.29
2017-07-19T00:13:47.087Z,39.2
2017-07-19T00:14:47.115Z,38.81
2017-07-19T00:15:47.264Z,39.11
2017-07-19T00:16:47.057Z,39.12
2017-07-19T00:17:47.055Z,39.11
2017-07-19T00:18:47.376Z,39.49
2017-07-19T00:19:47.375Z,39.39
2017-07-19T00:20:47.384Z,39.59
2017-07-19T00:21:47.383Z,39.39
2017-07-19T00:22:47.420Z,39.39
2017-07-19T00:23:47.419Z,39.59
2017-07-19T00:24:47.454Z,39.49
2017-07-19T00:25:47.447Z,39.69
2017-07-19T00:26:47.525Z,39.59
2017-07-19T00:27:47.140Z,39.87
2017-07-19T00:28:47.554Z,39.69
2017-07-19T00:29:47.505Z,39.78
2017-07-19T00:30:47.533Z,39.97
2017-07-19T00:31:47.360Z,39.86
2017-07-19T00:32:47.583Z,39.78
2017-07-19T00:33:47.605Z,40.15
2017-07-19T00:34:47.636Z,40.05
2017-07-19T00:35:47.343Z,39.95
2017-07-19T00:36:47.689Z,40.05
2017-07-19T00:37:47.708Z,40.15
2017-07-19T00:38:47.737Z,39.86
2017-07-19T00:39:47.762Z,40.17
2017-07-19T00:40:47.793Z,40.24
2017-07-19T00:41:47.817Z,40.15
2017-07-19T00:42:47.840Z,40.05
2017-07-19T00:43:47.865Z,40.05
2017-07-19T00:44:47.893Z,40.34
2017-07-19T00:45:47.918Z,40.44
2017-07-19T00:46:47.940Z,40.15
2017-07-19T00:47:47.971Z,40.15
2017-07-19T00:48:47.997Z,40.44
2017-07-19T00:49:47.708Z,40.44
2017-07-19T00:50:48.046Z,40.34
2017-07-19T00:51:48.072Z,40.53
2017-07-19T00:52:47.783Z,40.72
2017-07-19T00:53:48.122Z,40.72
2017-07-19T00:54:47.840Z,40.72
2017-07-19T00:55:48.177Z,40.99
2017-07-19T00:56:48.209Z,40.8
2017-07-19T00:57:48.239Z,41.02
2017-07-19T00:58:48.249Z,41.2
2017-07-19T00:59:48.278Z,40.9
2017-07-19T01:00:48.298Z,41.19
2017-07-19T01:01:48.329Z,40.99
2017-07-19T01:02:48.354Z,40.9
2017-07-19T01:03:48.383Z,40.9
2017-07-19T01:04:48.407Z,41.09
2017-07-19T01:05:48.424Z,41.19
2017-07-19T01:06:48.457Z,41.28
2017-07-19T01:07:48.481Z,41.28
2017-07-19T01:08:48.508Z,41.28
2017-07-19T01:09:48.533Z,41.38
2017-07-19T01:10:48.553Z,41.28
2017-07-19T01:11:48.713Z,41.28
2017-07-19T01:12:48.605Z,41.38
2017-07-19T01:13:48.634Z,41.38
2017-07-19T01:14:48.658Z,41.38
2017-07-19T01:15:48.687Z,41.28
2017-07-19T01:16:48.707Z,41.19
2017-07-19T01:17:48.736Z,41.19
2017-07-19T01:18:48.764Z,41.28
2017-07-19T01:19:48.788Z,41.77
2017-07-19T01:20:48.821Z,41.86
2017-07-19T01:21:48.833Z,41.86
2017-07-19T01:22:48.547Z,41.86
2017-07-19T01:23:48.885Z,42.25
2017-07-19T01:24:48.907Z,42.13
2017-07-19T01:25:48.624Z,42.13
2017-07-19T01:26:48.962Z,42.25
2017-07-19T01:27:48.987Z,41.96
2017-07-19T01:28:49.012Z,42.23
2017-07-19T01:29:49.036Z,42.42
2017-07-19T01:30:49.062Z,42.52
2017-07-19T01:31:48.772Z,42.52
2017-07-19T01:32:49.108Z,42.61
2017-07-19T01:33:49.138Z,42.61
2017-07-19T01:34:49.158Z,42.52
2017-07-19T01:35:48.874Z,42.61
2017-07-19T01:36:49.292Z,42.8
2017-07-19T01:37:49.240Z,43.19
2017-07-19T01:38:49.281Z,43.1
2017-07-19T01:39:49.373Z,42.8
2017-07-19T01:40:49.356Z,43
2017-07-19T01:41:49.060Z,42.42
2017-07-19T01:42:49.390Z,43.1
2017-07-19T01:43:49.411Z,42.9
2017-07-19T01:44:49.441Z,43
2017-07-19T01:45:49.443Z,42.9
2017-07-19T01:46:49.461Z,42.8
2017-07-19T01:47:49.490Z,42.8
2017-07-19T01:48:49.508Z,42.8
2017-07-19T01:49:49.538Z,42.8
2017-07-19T01:50:49.564Z,42.8
2017-07-19T01:51:49.587Z,42.71
2017-07-19T01:52:49.615Z,43.1
2017-07-19T01:53:49.640Z,42.8
2017-07-19T01:54:49.663Z,42.79
2017-07-19T01:55:49.688Z,43.1
2017-07-19T01:56:49.708Z,42.9
2017-07-19T01:57:49.737Z,42.97
2017-07-19T01:58:49.764Z,42.97
2017-07-19T01:59:49.782Z,43.17
2017-07-19T02:00:49.813Z,43.65
2017-07-19T02:01:49.839Z,43.07
2017-07-19T02:02:49.864Z,43.55
2017-07-19T02:03:49.889Z,43.75
2017-07-19T02:04:50.024Z,43.46
2017-07-19T02:05:49.655Z,43.46
2017-07-19T02:06:49.960Z,43.27
2017-07-19T02:07:49.980Z,43.85
2017-07-19T02:08:50.009Z,43.85
2017-07-19T02:09:49.725Z,43.85
2017-07-19T02:10:50.057Z,43.55
2017-07-19T02:11:50.087Z,43.37
2017-07-19T02:12:50.110Z,43.27
2017-07-19T02:13:49.818Z,43.27
2017-07-19T02:14:50.165Z,43.17
2017-07-19T02:15:50.184Z,43.55
2017-07-19T02:16:50.208Z,43.27
2017-07-19T02:17:50.231Z,43.37
2017-07-19T02:18:50.258Z,43.27
2017-07-19T02:19:50.284Z,43.46
2017-07-19T02:20:50.307Z,43.65
2017-07-19T02:21:50.332Z,43.46
2017-07-19T02:22:50.482Z,43.46
2017-07-19T02:23:50.379Z,43.65
2017-07-19T02:24:50.499Z,43.46
2017-07-19T02:25:50.430Z,43.55
2017-07-19T02:26:50.503Z,43.65
2017-07-19T02:27:50.507Z,43.75
2017-07-19T02:28:50.597Z,43.94
2017-07-19T02:29:50.612Z,43.37
2017-07-19T02:30:50.613Z,43.37
2017-07-19T02:31:50.622Z,43.55
2017-07-19T02:32:50.288Z,43.55
2017-07-19T02:33:50.776Z,43.94
2017-07-19T02:34:50.431Z,43.82
2017-07-19T02:35:50.713Z,44.02
2017-07-19T02:36:50.730Z,43.63
2017-07-19T02:37:50.756Z,43.82
2017-07-19T02:38:50.765Z,43.73
2017-07-19T02:39:50.462Z,43.82
2017-07-19T02:40:50.513Z,44.11
2017-07-19T02:41:50.829Z,44.02
2017-07-19T02:42:50.849Z,43.63
2017-07-19T02:43:50.555Z,44.31
2017-07-19T02:44:50.895Z,44.11
2017-07-19T02:45:50.925Z,44.21
2017-07-19T02:46:50.628Z,43.82
2017-07-19T02:47:50.972Z,44.21
2017-07-19T02:48:50.991Z,44.31
2017-07-19T02:49:51.017Z,44.21
2017-07-19T02:50:51.045Z,44.4
2017-07-19T02:51:50.748Z,44.31
2017-07-19T02:52:51.091Z,44.4
2017-07-19T02:53:50.801Z,44.4
2017-07-19T02:54:51.135Z,44.49
2017-07-19T02:55:50.850Z,44.4
2017-07-19T02:56:51.206Z,44.49
2017-07-19T02:57:51.213Z,44.59
2017-07-19T02:58:50.921Z,44.59
2017-07-19T02:59:50.947Z,44.59
2017-07-19T03:00:50.970Z,44.69
2017-07-19T03:01:51.107Z,44.79
2017-07-19T03:02:51.335Z,44.79
2017-07-19T03:03:51.158Z,44.69
2017-07-19T03:04:51.193Z,44.69
2017-07-19T03:05:51.088Z,44.59
2017-07-19T03:06:51.432Z,44.86
2017-07-19T03:07:51.457Z,44.79
2017-07-19T03:08:51.480Z,44.98
2017-07-19T03:09:51.502Z,44.98
2017-07-19T03:10:51.523Z,45.05
2017-07-19T03:11:51.551Z,44.96
2017-07-19T03:12:51.374Z,45.15
2017-07-19T03:13:51.672Z,45.15
2017-07-19T03:14:51.698Z,45.15
2017-07-19T03:15:51.698Z,44.96
2017-07-19T03:16:51.706Z,45.05
2017-07-19T03:17:51.694Z,44.96
2017-07-19T03:18:51.722Z,45.15
2017-07-19T03:19:51.428Z,44.96
2017-07-19T03:20:51.764Z,45.15
2017-07-19T03:21:51.478Z,45.05
2017-07-19T03:22:51.819Z,45.15
2017-07-19T03:23:51.525Z,45.34
2017-07-19T03:24:51.547Z,45.34
2017-07-19T03:25:51.898Z,45.34
2017-07-19T03:26:51.616Z,45.44
2017-07-19T03:27:51.933Z,45.53
2017-07-19T03:28:51.957Z,45.63
2017-07-19T03:29:51.987Z,45.53
2017-07-19T03:30:52.014Z,45.53
2017-07-19T03:31:51.716Z,45.44
2017-07-19T03:32:52.060Z,45.44
2017-07-19T03:33:52.081Z,45.53
2017-07-19T03:34:52.104Z,45.63
2017-07-19T03:35:51.888Z,45.83
2017-07-19T03:36:52.166Z,45.73
2017-07-19T03:37:52.180Z,45.53
2017-07-19T03:38:51.884Z,45.63
2017-07-19T03:39:52.217Z,45.63
2017-07-19T03:40:51.959Z,45.63
2017-07-19T03:41:52.275Z,45.63
2017-07-19T03:42:52.296Z,45.73
2017-07-19T03:43:52.002Z,45.63
2017-07-19T03:44:52.029Z,45.63
2017-07-19T03:45:52.368Z,45.83
2017-07-19T03:46:52.084Z,45.73
2017-07-19T03:47:52.195Z,45.92
2017-07-19T03:48:52.549Z,45.53
2017-07-19T03:49:52.513Z,45.73
2017-07-19T03:50:52.533Z,45.92
2017-07-19T03:51:52.520Z,45.99
2017-07-19T03:52:52.216Z,46.01
2017-07-19T03:53:52.658Z,46.01
2017-07-19T03:54:52.264Z,46.01
2017-07-19T03:55:52.289Z,45.99
2017-07-19T03:56:52.753Z,46.11
2017-07-19T03:57:52.655Z,45.9
2017-07-19T03:58:52.690Z,46.01
2017-07-19T03:59:52.705Z,46.28
2017-07-19T04:00:52.722Z,46.19
2017-07-19T04:01:52.745Z,46.19
2017-07-19T04:02:52.770Z,46.19
2017-07-19T04:03:52.797Z,46.28
2017-07-19T04:04:52.506Z,46.47
2017-07-19T04:05:52.841Z,46.67
2017-07-19T04:06:52.868Z,46.57
2017-07-19T04:07:52.895Z,46.86
2017-07-19T04:08:52.912Z,46.57
2017-07-19T04:09:52.939Z,46.57
2017-07-19T04:10:52.986Z,46.57
2017-07-19T04:11:52.987Z,46.57
2017-07-19T04:12:53.011Z,46.77
2017-07-19T04:13:53.040Z,46.57
2017-07-19T04:14:53.058Z,47.15
2017-07-19T04:15:53.086Z,47.05
2017-07-19T04:16:53.126Z,47.24
2017-07-19T04:17:53.128Z,47.05
2017-07-19T04:18:52.835Z,46.77
2017-07-19T04:19:53.174Z,46.86
2017-07-19T04:20:53.199Z,46.86
2017-07-19T04:21:53.226Z,47.05
2017-07-19T04:22:53.248Z,46.86
2017-07-19T04:23:53.272Z,47.34
2017-07-19T04:24:53.301Z,47.15
2017-07-19T04:25:53.317Z,47.05
2017-07-19T04:26:53.025Z,47.34
2017-07-19T04:27:53.458Z,47.24
2017-07-19T04:28:53.484Z,47.15
2017-07-19T04:29:53.100Z,47.24
2017-07-19T04:30:53.481Z,47.34
2017-07-19T04:31:53.492Z,47.53
2017-07-19T04:32:53.479Z,47.53
2017-07-19T04:33:53.506Z,47.63
2017-07-19T04:34:53.532Z,47.82
2017-07-19T04:35:53.558Z,47.05
2017-07-19T04:36:53.577Z,47.34
2017-07-19T04:37:53.599Z,47.34
2017-07-19T04:38:53.627Z,47.72
2017-07-19T04:39:53.654Z,47.05
2017-07-19T04:40:53.676Z,47.15
2017-07-19T04:41:53.693Z,47.05
2017-07-19T04:42:53.822Z,47.05
2017-07-19T04:43:53.748Z,47.15
2017-07-19T04:44:53.768Z,47.53
2017-07-19T04:45:53.789Z,47.63
2017-07-19T04:46:53.817Z,47.53
2017-07-19T04:47:53.838Z,47.63
2017-07-19T04:48:53.863Z,47.44
2017-07-19T04:49:53.902Z,47.92
2017-07-19T04:50:53.916Z,47.53
2017-07-19T04:51:53.615Z,47.53
2017-07-19T04:52:53.960Z,47.34
2017-07-19T04:53:53.977Z,47.53
2017-07-19T04:54:53.999Z,47.15
2017-07-19T04:55:54.060Z,47.82
2017-07-19T04:56:54.173Z,47.72
2017-07-19T04:57:54.120Z,47.92
2017-07-19T04:58:54.126Z,47.53
2017-07-19T04:59:54.152Z,47.63
2017-07-19T05:00:54.147Z,48.02
2017-07-19T05:01:54.289Z,48.4
2017-07-19T05:02:54.190Z,48.4
2017-07-19T05:03:53.904Z,47.92
2017-07-19T05:04:54.237Z,47.92
2017-07-19T05:05:54.265Z,48.02
2017-07-19T05:06:54.281Z,48.21
2017-07-19T05:07:54.306Z,48.4
2017-07-19T05:08:54.335Z,48.21
2017-07-19T05:09:54.360Z,48.69
2017-07-19T05:10:54.387Z,48.59
2017-07-19T05:11:54.416Z,48.21
2017-07-19T05:12:54.441Z,48.3
2017-07-19T05:13:54.448Z,47.72
2017-07-19T05:14:54.468Z,48.11
2017-07-19T05:15:54.274Z,48.69
2017-07-19T05:16:54.608Z,48.3
2017-07-19T05:17:54.608Z,48.3
2017-07-19T05:18:54.608Z,48.4
2017-07-19T05:19:54.607Z,48.4
2017-07-19T05:20:54.615Z,48.4
2017-07-19T05:21:54.639Z,48.59
2017-07-19T05:22:54.662Z,48.49
2017-07-19T05:23:54.689Z,48.59
2017-07-19T05:24:54.834Z,48.59
2017-07-19T05:25:54.729Z,48.49
2017-07-19T05:26:54.436Z,48.59
2017-07-19T05:27:54.780Z,48.49
2017-07-19T05:28:54.799Z,48.49
2017-07-19T05:29:54.825Z,48.4
2017-07-19T05:30:54.853Z,48.4
2017-07-19T05:31:54.873Z,48.69
2017-07-19T05:32:54.902Z,48.69
2017-07-19T05:33:54.949Z,48.88
2017-07-19T05:34:54.942Z,49.19
2017-07-19T05:35:54.964Z,49.07
2017-07-19T05:36:55.006Z,49.07
2017-07-19T05:37:55.016Z,49.65
2017-07-19T05:38:54.720Z,49.46
2017-07-19T05:39:54.748Z,49.38
2017-07-19T05:40:55.084Z,49.65
2017-07-19T05:41:55.108Z,49.27
2017-07-19T05:42:54.817Z,49.84
2017-07-19T05:43:55.154Z,49.27
2017-07-19T05:44:55.188Z,49.27
2017-07-19T05:45:55.201Z,49.36
2017-07-19T05:46:54.910Z,49.55
2017-07-19T05:47:54.930Z,49.55
2017-07-19T05:48:55.270Z,49.38
2017-07-19T05:49:55.295Z,49.65
2017-07-19T05:50:55.319Z,49.55
2017-07-19T05:51:55.345Z,50.45
2017-07-19T05:52:55.366Z,49.55
2017-07-19T05:53:55.389Z,49.77
2017-07-19T05:54:55.664Z,49.74
2017-07-19T05:55:55.440Z,49.68
2017-07-19T05:56:55.458Z,50.23
2017-07-19T05:57:55.481Z,49.96
2017-07-19T05:58:55.534Z,49.96
2017-07-19T05:59:55.528Z,50.06
2017-07-19T06:00:55.241Z,50.15
2017-07-19T06:01:55.576Z,50.06
2017-07-19T06:02:55.603Z,49.87
2017-07-19T06:03:55.627Z,50.35
2017-07-19T06:04:55.335Z,50.54
2017-07-19T06:05:55.670Z,50.25
2017-07-19T06:06:55.697Z,50.54
2017-07-19T06:07:55.716Z,50.35
2017-07-19T06:08:55.738Z,50.35
2017-07-19T06:09:55.762Z,50.35
2017-07-19T06:10:55.786Z,49.96
2017-07-19T06:11:55.815Z,50.15
2017-07-19T06:12:55.853Z,50.06
2017-07-19T06:13:55.864Z,50.06
2017-07-19T06:14:55.880Z,50.63
2017-07-19T06:15:56.077Z,50.15
2017-07-19T06:16:55.934Z,50.54
2017-07-19T06:17:55.645Z,50.25
2017-07-19T06:18:55.977Z,50.37
2017-07-19T06:19:56.011Z,50.18
2017-07-19T06:20:56.228Z,50.76
2017-07-19T06:21:55.732Z,49.99
2017-07-19T06:22:56.232Z,50.18
2017-07-19T06:23:55.778Z,50.18
2017-07-19T06:24:55.806Z,50.27
2017-07-19T06:25:56.143Z,49.79
2017-07-19T06:26:56.168Z,50.27
2017-07-19T06:27:56.189Z,50.09
2017-07-19T06:28:56.212Z,50.09
2017-07-19T06:29:55.918Z,49.99
2017-07-19T06:30:56.260Z,49.89
2017-07-19T06:31:55.970Z,49.89
2017-07-19T06:32:56.310Z,49.79
2017-07-19T06:33:56.340Z,49.51
2017-07-19T06:34:56.353Z,48.83
2017-07-19T06:35:56.483Z,49.6
2017-07-19T06:36:56.482Z,48.83
2017-07-19T06:37:56.429Z,49.41
2017-07-19T06:38:56.251Z,48.76
2017-07-19T06:39:56.476Z,48.54
2017-07-19T06:40:56.183Z,48.95
2017-07-19T06:41:56.519Z,48.35
2017-07-19T06:42:56.551Z,48.83
2017-07-19T06:43:56.570Z,48.38
2017-07-19T06:44:56.591Z,48.18
2017-07-19T06:45:56.616Z,48.38
2017-07-19T06:46:56.638Z,48.66
2017-07-19T06:47:56.665Z,48.57
2017-07-19T06:48:56.685Z,48.47
2017-07-19T06:49:56.714Z,47.99
2017-07-19T06:50:56.738Z,48.66
2017-07-19T06:51:56.761Z,48.57
2017-07-19T06:52:56.465Z,48.18
2017-07-19T06:53:56.933Z,48.01
2017-07-19T06:54:56.835Z,48.59
2017-07-19T06:55:56.856Z,48.4
2017-07-19T06:56:56.891Z,48.3
2017-07-19T06:57:56.915Z,48.3
2017-07-19T06:58:56.928Z,48.79
2017-07-19T06:59:56.954Z,48.4
2017-07-19T07:00:56.968Z,48.3
2017-07-19T07:01:57.003Z,48.33
2017-07-19T07:02:57.025Z,47.94
2017-07-19T07:03:57.044Z,47.75
2017-07-19T07:04:56.787Z,47.65
2017-07-19T07:05:57.097Z,48.03
2017-07-19T07:06:57.228Z,47.75
2017-07-19T07:07:56.826Z,47.36
2017-07-19T07:08:56.847Z,47.85
2017-07-19T07:09:57.256Z,47.96
2017-07-19T07:10:57.252Z,48.06
2017-07-19T07:11:56.923Z,47.77
2017-07-19T07:12:56.954Z,47.48
2017-07-19T07:13:56.977Z,47.48
2017-07-19T07:14:56.995Z,47.48
2017-07-19T07:15:57.338Z,47.77
2017-07-19T07:16:57.045Z,47.29
2017-07-19T07:17:57.381Z,47.48
2017-07-19T07:18:57.411Z,47.38
2017-07-19T07:19:57.436Z,47.5
2017-07-19T07:20:57.142Z,47.5
2017-07-19T07:21:57.482Z,47.22
2017-07-19T07:22:57.525Z,47.5
2017-07-19T07:23:57.534Z,47.31
2017-07-19T07:24:57.558Z,47.12
2017-07-19T07:25:57.265Z,47.41
2017-07-19T07:26:57.292Z,47.5
2017-07-19T07:27:57.640Z,47.5
2017-07-19T07:28:57.654Z,47.5
2017-07-19T07:29:57.684Z,47.8
2017-07-19T07:30:57.709Z,47.53
2017-07-19T07:31:57.735Z,47.72
2017-07-19T07:32:57.753Z,47.33
2017-07-19T07:33:57.773Z,47.43
2017-07-19T07:34:57.492Z,47.33
2017-07-19T07:35:57.822Z,46.95
2017-07-19T07:36:57.544Z,47.24
2017-07-19T07:37:57.884Z,47.05
2017-07-19T07:38:57.903Z,47.16
2017-07-19T07:39:57.936Z,46.97
2017-07-19T07:40:57.642Z,47.16
2017-07-19T07:41:57.979Z,46.78
2017-07-19T07:42:58.001Z,46.78
2017-07-19T07:43:58.028Z,46.49
2017-07-19T07:44:57.745Z,46.78
2017-07-19T07:45:58.080Z,46.61
2017-07-19T07:46:58.104Z,46.61
2017-07-19T07:47:58.121Z,46.51
2017-07-19T07:48:58.150Z,46.32
2017-07-19T07:49:58.174Z,46.34
2017-07-19T07:50:58.207Z,46.05
2017-07-19T07:51:58.230Z,46.05
2017-07-19T07:52:58.251Z,45.95
2017-07-19T07:53:58.277Z,45.95
2017-07-19T07:54:58.301Z,46.15
2017-07-19T07:55:58.325Z,45.86
2017-07-19T07:56:58.042Z,45.86
2017-07-19T07:57:58.385Z,45.98
2017-07-19T07:58:58.086Z,45.78
2017-07-19T07:59:58.425Z,45.59
2017-07-19T08:00:58.455Z,45.49
2017-07-19T08:01:58.168Z,45.4
2017-07-19T08:02:58.182Z,45.42
2017-07-19T08:03:58.214Z,45.22
2017-07-19T08:04:58.232Z,45.22
2017-07-19T08:05:58.578Z,45.22
2017-07-19T08:06:58.729Z,45.15
2017-07-19T08:07:58.487Z,44.84
2017-07-19T08:08:58.654Z,44.86
2017-07-19T08:09:58.367Z,44.67
2017-07-19T08:10:58.710Z,44.37
2017-07-19T08:11:58.739Z,44.09
2017-07-19T08:12:58.755Z,44.27
2017-07-19T08:13:58.782Z,44.3
2017-07-19T08:14:58.811Z,44.2
2017-07-19T08:15:58.845Z,43.82
2017-07-19T08:16:58.879Z,43.72
2017-07-19T08:17:58.889Z,43.82
2017-07-19T08:18:58.922Z,43.35
2017-07-19T08:19:58.937Z,43.93
2017-07-19T08:20:58.971Z,43.54
2017-07-19T08:21:58.989Z,43.06
2017-07-19T08:22:59.015Z,43.18
2017-07-19T08:23:59.047Z,43.47
2017-07-19T08:24:59.062Z,42.89
2017-07-19T08:25:59.093Z,42.89
2017-07-19T08:26:59.174Z,42.5
2017-07-19T08:27:59.142Z,42.3
2017-07-19T08:28:59.165Z,42.52
2017-07-19T08:29:59.201Z,42.52
2017-07-19T08:30:59.225Z,42.52
2017-07-19T08:31:59.250Z,42.23
2017-07-19T08:32:59.285Z,42.35
2017-07-19T08:33:59.304Z,42.25
2017-07-19T08:34:59.329Z,41.86
2017-07-19T08:35:59.354Z,41.47
2017-07-19T08:36:59.064Z,41.1
2017-07-19T08:37:59.098Z,41.1
2017-07-19T08:38:59.435Z,40.91
2017-07-19T08:39:59.145Z,40.62
2017-07-19T08:40:59.489Z,40.34
2017-07-19T08:41:59.514Z,40.54
2017-07-19T08:42:59.228Z,40.15
2017-07-19T08:43:59.261Z,40.06
2017-07-19T08:44:59.277Z,40.17
2017-07-19T08:45:59.621Z,39.88
2017-07-19T08:46:59.649Z,39.69
2017-07-19T08:47:59.674Z,39.49
2017-07-19T08:48:59.699Z,39.22
2017-07-19T08:49:59.415Z,39.1
2017-07-19T08:50:59.761Z,38.83
2017-07-19T08:51:59.783Z,38.83
2017-07-19T08:52:59.808Z,39.12
2017-07-19T08:53:59.834Z,39.14
2017-07-19T08:54:59.998Z,39.24
2017-07-19T08:55:59.893Z,38.85
2017-07-19T08:56:59.921Z,38.95
2017-07-19T08:57:59.953Z,38.56
2017-07-19T08:58:59.978Z,38.65
2017-07-19T09:00:00.104Z,38.28
2017-07-19T09:01:00.027Z,37.89
2017-07-19T09:02:00.055Z,38.28
2017-07-19T09:03:00.083Z,38.48
2017-07-19T09:04:00.113Z,38.01
2017-07-19T09:05:00.146Z,37.81
2017-07-19T09:06:00.176Z,37.62
2017-07-19T09:07:00.198Z,37.43
2017-07-19T09:08:00.225Z,37.35
2017-07-19T09:09:00.258Z,37.25
2017-07-19T09:10:00.279Z,37.35
2017-07-19T09:11:00.305Z,37.15
2017-07-19T09:12:00.335Z,36.86
2017-07-19T09:13:00.362Z,37.07
2017-07-19T09:14:00.412Z,36.49
2017-07-19T09:15:00.416Z,36.49
2017-07-19T09:16:00.450Z,36
2017-07-19T09:17:00.472Z,36
2017-07-19T09:18:00.185Z,36.02
2017-07-19T09:19:00.533Z,35.82
2017-07-19T09:20:00.576Z,35.82
2017-07-19T09:21:00.591Z,35.72
2017-07-19T09:22:00.613Z,35.72
2017-07-19T09:23:00.650Z,35.74
2017-07-19T09:24:00.673Z,35.84
2017-07-19T09:25:00.710Z,35.94
2017-07-19T09:26:00.413Z,35.45
2017-07-19T09:27:00.763Z,35.46
2017-07-19T09:28:00.788Z,35.27
2017-07-19T09:29:00.818Z,34.78
2017-07-19T09:30:00.530Z,34.89
2017-07-19T09:31:00.880Z,34.31
2017-07-19T09:32:00.910Z,34.41
2017-07-19T09:33:00.933Z,34.5
2017-07-19T09:34:00.965Z,34.5
2017-07-19T09:35:00.988Z,34.42
2017-07-19T09:36:01.020Z,34.42
2017-07-19T09:37:01.053Z,33.84
2017-07-19T09:38:00.765Z,33.85
2017-07-19T09:39:01.105Z,33.36
2017-07-19T09:40:00.832Z,33.26
2017-07-19T09:41:01.166Z,32.99
2017-07-19T09:42:01.196Z,32.5
2017-07-19T09:43:01.225Z,32.6
2017-07-19T09:44:01.261Z,32.6
2017-07-19T09:45:00.971Z,32.61
2017-07-19T09:46:01.327Z,32.81
2017-07-19T09:47:01.350Z,32.22
2017-07-19T09:48:01.384Z,32.42
2017-07-19T09:49:01.404Z,32.32
2017-07-19T09:50:01.432Z,31.84
2017-07-19T09:51:01.476Z,31.84
2017-07-19T09:52:01.492Z,31.96
2017-07-19T09:53:01.212Z,31.65
2017-07-19T09:54:01.559Z,31.47
2017-07-19T09:55:01.585Z,31.27
2017-07-19T09:56:01.307Z,31.07
2017-07-19T09:57:01.644Z,30.99
2017-07-19T09:58:01.676Z,30.99
2017-07-19T09:59:01.706Z,30.6
2017-07-19T10:00:01.740Z,30.4
2017-07-19T10:01:01.764Z,30.7
2017-07-19T10:02:01.800Z,30.71
2017-07-19T10:03:01.827Z,30.52
2017-07-19T10:04:01.857Z,30.42
2017-07-19T10:05:01.895Z,30.14
2017-07-19T10:06:01.918Z,30.04
2017-07-19T10:07:01.968Z,29.75
2017-07-19T10:08:01.664Z,29.75
2017-07-19T10:09:01.700Z,29.47
2017-07-19T10:10:01.735Z,29.17
2017-07-19T10:11:02.079Z,29.07
2017-07-19T10:12:02.106Z,29.37
2017-07-19T10:13:01.824Z,28.97
2017-07-19T10:14:02.165Z,28.69
2017-07-19T10:15:02.202Z,28.79
2017-07-19T10:16:02.239Z,28.89
2017-07-19T10:17:02.265Z,28.7
2017-07-19T10:18:02.297Z,28.51
2017-07-19T10:19:02.325Z,28.31
2017-07-19T10:20:02.359Z,28.12
2017-07-19T10:21:02.390Z,28.31
2017-07-19T10:22:02.424Z,28.03
2017-07-19T10:23:02.454Z,27.94
2017-07-19T10:24:02.498Z,28.03
2017-07-19T10:25:02.522Z,27.84
2017-07-19T10:26:02.554Z,27.44
2017-07-19T10:27:02.582Z,27.36
2017-07-19T10:28:02.614Z,27.36
2017-07-19T10:29:02.329Z,27.45
2017-07-19T10:30:02.375Z,27.26
2017-07-19T10:31:02.390Z,27.37
2017-07-19T10:32:02.737Z,27.67
2017-07-19T10:33:02.767Z,26.78
2017-07-19T10:34:02.806Z,27.47
2017-07-19T10:35:02.847Z,26.79
2017-07-19T10:36:02.566Z,26.89
2017-07-19T10:37:02.901Z,26.5
2017-07-19T10:38:02.949Z,26.2
2017-07-19T10:39:02.965Z,26.01
2017-07-19T10:40:02.996Z,26.12
2017-07-19T10:41:03.034Z,25.92
2017-07-19T10:42:03.064Z,26.02
2017-07-19T10:43:03.099Z,25.92
2017-07-19T10:44:03.145Z,25.62
2017-07-19T10:45:03.167Z,25.43
2017-07-19T10:46:03.199Z,25.63
2017-07-19T10:47:03.223Z,25.63
2017-07-19T10:48:03.259Z,25.34
2017-07-19T10:49:03.295Z,25.24
2017-07-19T10:50:03.337Z,24.66
2017-07-19T10:51:03.365Z,24.96
2017-07-19T10:52:03.088Z,24.76
2017-07-19T10:53:03.423Z,24.96
2017-07-19T10:54:03.457Z,24.38
2017-07-19T10:55:03.171Z,24.87
2017-07-19T10:56:03.223Z,24.57
2017-07-19T10:57:03.551Z,24.48
2017-07-19T10:58:03.606Z,23.69
2017-07-19T10:59:03.308Z,23.99
2017-07-19T11:00:03.658Z,23.3
2017-07-19T11:01:03.690Z,23.21
2017-07-19T11:02:03.727Z,23.6
2017-07-19T11:03:03.761Z,23.7
2017-07-19T11:04:03.495Z,23.11
2017-07-19T11:05:03.835Z,23.11
2017-07-19T11:06:03.859Z,23.32
2017-07-19T11:07:03.892Z,23.22
2017-07-19T11:08:03.928Z,23.22
2017-07-19T11:09:03.648Z,22.82
2017-07-19T11:10:03.995Z,23.13
2017-07-19T11:11:04.034Z,23.03
2017-07-19T11:12:04.059Z,23.22
2017-07-19T11:13:04.095Z,23.22
2017-07-19T11:14:03.814Z,22.93
2017-07-19T11:15:04.169Z,22.83
2017-07-19T11:16:03.887Z,22.94
2017-07-19T11:17:04.238Z,22.74
2017-07-19T11:18:04.276Z,22.34
2017-07-19T11:19:04.301Z,22.55
2017-07-19T11:20:04.343Z,22.85
2017-07-19T11:21:04.054Z,21.96
2017-07-19T11:22:04.086Z,22.56
2017-07-19T11:23:04.130Z,22.45
2017-07-19T11:24:04.476Z,21.97
2017-07-19T11:25:04.196Z,21.58
2017-07-19T11:26:04.224Z,21.58
2017-07-19T11:27:04.580Z,21.58
2017-07-19T11:28:04.612Z,21.58
2017-07-19T11:29:04.339Z,21.38
2017-07-19T11:30:04.369Z,21.38
2017-07-19T11:31:04.719Z,21.38
2017-07-19T11:32:04.754Z,21.19
2017-07-19T11:33:04.791Z,21.09
2017-07-19T11:34:04.819Z,21.19
2017-07-19T11:35:04.539Z,21.19
2017-07-19T11:36:04.890Z,21
2017-07-19T11:37:04.928Z,20.3
2017-07-19T11:38:04.964Z,20.51
2017-07-19T11:39:04.995Z,20.79
2017-07-19T11:40:05.035Z,20.7
2017-07-19T11:41:05.069Z,20.7
2017-07-19T11:42:05.107Z,20.41
2017-07-19T11:43:05.138Z,19.82
2017-07-19T11:44:05.176Z,20.11
2017-07-19T11:45:05.213Z,20.01
2017-07-19T11:46:04.924Z,19.71
2017-07-19T11:47:05.287Z,19.92
2017-07-19T11:48:05.318Z,19.73
2017-07-19T11:49:05.036Z,19.43
2017-07-19T11:50:05.393Z,19.43
2017-07-19T11:51:05.107Z,19.53
2017-07-19T11:52:05.144Z,19.43
2017-07-19T11:53:05.189Z,19.62
2017-07-19T11:54:05.532Z,19.33
2017-07-19T11:55:05.269Z,19.34
2017-07-19T11:56:05.598Z,19.44
2017-07-19T11:57:05.333Z,19.64
2017-07-19T11:58:05.677Z,19.45
2017-07-19T11:59:05.713Z,19.15
2017-07-19T12:00:05.751Z,19.15
2017-07-19T12:01:05.465Z,18.95
2017-07-19T12:02:05.814Z,19.05
2017-07-19T12:03:05.851Z,18.95
2017-07-19T12:04:05.887Z,18.76
2017-07-19T12:05:05.930Z,18.56
2017-07-19T12:06:05.962Z,18.56
2017-07-19T12:07:05.683Z,18.76
2017-07-19T12:08:06.029Z,18.76
2017-07-19T12:09:06.070Z,18.66
2017-07-19T12:10:06.107Z,18.66
2017-07-19T12:11:06.147Z,18.56
2017-07-19T12:12:06.186Z,18.77
2017-07-19T12:13:06.218Z,18.57
2017-07-19T12:14:06.253Z,18.47
2017-07-19T12:15:06.291Z,18.67
2017-07-19T12:16:06.324Z,18.48
2017-07-19T12:17:06.358Z,18.08
2017-07-19T12:18:06.394Z,18.18
2017-07-19T12:19:06.432Z,18.08
2017-07-19T12:20:06.472Z,17.88
2017-07-19T12:21:06.509Z,18.18
2017-07-19T12:22:06.553Z,18.08
2017-07-19T12:23:06.608Z,17.69
2017-07-19T12:24:06.618Z,17.1
2017-07-19T12:25:06.654Z,16.8
2017-07-19T12:26:06.783Z,16.8
2017-07-19T12:27:06.808Z,16.71
2017-07-19T12:28:06.807Z,16.91
2017-07-19T12:29:06.817Z,17
2017-07-19T12:30:06.949Z,17
2017-07-19T12:31:06.974Z,17.11
2017-07-19T12:32:06.988Z,16.81
2017-07-19T12:33:06.948Z,17.02
2017-07-19T12:34:06.785Z,17
2017-07-19T12:35:06.781Z,16.42
2017-07-19T12:36:07.099Z,16.52
2017-07-19T12:37:07.119Z,17.02
2017-07-19T12:38:07.136Z,17.02
2017-07-19T12:39:07.168Z,16.93
2017-07-19T12:40:07.209Z,17.22
2017-07-19T12:41:07.248Z,16.93
2017-07-19T12:42:07.282Z,17.02
2017-07-19T12:43:07.320Z,16.93
2017-07-19T12:44:07.362Z,17.02
2017-07-19T12:45:07.395Z,16.83
2017-07-19T12:46:07.434Z,16.63
2017-07-19T12:47:07.480Z,16.53
2017-07-19T12:48:07.195Z,16.53
2017-07-19T12:49:07.542Z,16.44
2017-07-19T12:50:07.581Z,16.24
2017-07-19T12:51:07.618Z,16.24
2017-07-19T12:52:07.340Z,16.04
2017-07-19T12:53:07.689Z,15.85
2017-07-19T12:54:07.731Z,16.15
2017-07-19T12:55:07.766Z,16.15
2017-07-19T12:56:07.488Z,16.35
2017-07-19T12:57:07.849Z,16.25